createdAt,value
2018-05-04T00:02:08.069Z,3.37
2018-05-04T00:04:35.538Z,4.37
2018-05-04T00:07:03.017Z,3.13
2018-05-04T00:09:30.494Z,3.53
2018-05-04T00:11:57.971Z,3.37
2018-05-04T00:14:25.460Z,3.57
2018-05-04T00:16:52.931Z,3.37
2018-05-04T00:19:20.408Z,3.77
2018-05-04T00:21:47.914Z,3.47
2018-05-04T00:24:15.401Z,3.40
2018-05-04T00:26:42.887Z,3.60
2018-05-04T00:29:10.381Z,3.63
2018-05-04T00:31:37.867Z,3.70
2018-05-04T00:34:05.325Z,3.73
2018-05-04T00:36:33.111Z,3.33
2018-05-04T00:39:00.600Z,3.70
2018-05-04T00:41:28.079Z,3.90
2018-05-04T00:43:55.551Z,3.83
2018-05-04T00:46:23.039Z,3.33
2018-05-04T00:48:50.529Z,3.83
2018-05-04T00:51:17.991Z,3.27
2018-05-04T00:53:57.086Z,3.67
2018-05-04T00:56:24.574Z,4.00
2018-05-04T00:58:52.288Z,4.00
2018-05-04T01:01:19.780Z,3.90
2018-05-04T01:03:47.307Z,3.83
2018-05-04T01:06:14.799Z,3.80
2018-05-04T01:08:42.287Z,4.60
2018-05-04T01:11:09.848Z,4.10
2018-05-04T01:13:37.328Z,3.83
2018-05-04T01:16:04.832Z,4.00
2018-05-04T01:18:32.391Z,4.30
2018-05-04T01:20:59.906Z,4.50
2018-05-04T01:23:27.400Z,4.07
2018-05-04T01:25:54.882Z,4.17
2018-05-04T01:28:22.404Z,4.00
2018-05-04T01:30:49.893Z,4.27
2018-05-04T01:33:17.539Z,4.27
2018-05-04T01:35:45.043Z,3.57
2018-05-04T01:38:12.536Z,4.07
2018-05-04T01:40:40.002Z,3.63
2018-05-04T01:43:07.599Z,3.83
2018-05-04T01:45:35.106Z,3.80
2018-05-04T01:48:02.647Z,3.73
2018-05-04T01:50:30.192Z,4.10
2018-05-04T01:52:57.671Z,3.70
2018-05-04T01:55:25.153Z,3.73
2018-05-04T01:57:52.665Z,4.10
2018-05-04T02:00:20.181Z,3.57
2018-05-04T02:02:47.667Z,3.80
2018-05-04T02:05:15.173Z,4.10
2018-05-04T02:07:42.662Z,3.77
2018-05-04T02:10:10.194Z,4.10
2018-05-04T02:12:37.695Z,4.43
2018-05-04T02:15:05.189Z,4.27
2018-05-04T02:17:32.721Z,4.20
2018-05-04T02:20:00.205Z,4.10
2018-05-04T02:22:27.701Z,4.33
2018-05-04T02:24:55.212Z,4.33
2018-05-04T02:27:22.692Z,4.10
2018-05-04T02:29:50.190Z,4.67
2018-05-04T02:32:17.664Z,4.47
2018-05-04T02:34:45.173Z,4.20
2018-05-04T02:37:12.691Z,4.50
2018-05-04T02:39:40.196Z,4.33
2018-05-04T02:42:07.687Z,4.63
2018-05-04T02:44:35.240Z,4.60
2018-05-04T02:47:02.741Z,4.47
2018-05-04T02:49:30.231Z,4.60
2018-05-04T02:51:57.771Z,4.50
2018-05-04T02:54:25.246Z,4.30
2018-05-04T02:56:52.808Z,4.80
2018-05-04T02:59:20.340Z,4.67
2018-05-04T03:01:47.819Z,4.60
2018-05-04T03:04:15.317Z,4.33
2018-05-04T03:06:42.791Z,4.23
2018-05-04T03:09:10.359Z,4.37
2018-05-04T03:11:37.921Z,4.57
2018-05-04T03:14:05.404Z,4.73
2018-05-04T03:16:32.903Z,3.83
2018-05-04T03:19:00.380Z,4.43
2018-05-04T03:21:27.871Z,4.53
2018-05-04T03:23:55.360Z,3.63
2018-05-04T03:26:22.834Z,4.57
2018-05-04T03:28:50.322Z,4.50
2018-05-04T03:31:17.852Z,4.30
2018-05-04T03:33:45.334Z,4.20
2018-05-04T03:36:12.850Z,3.80
2018-05-04T03:38:40.354Z,4.40
2018-05-04T03:41:07.863Z,4.20
2018-05-04T03:43:35.359Z,4.33
2018-05-04T03:46:02.893Z,3.90
2018-05-04T03:48:30.384Z,3.90
2018-05-04T03:50:57.867Z,5.03
2018-05-04T03:53:25.352Z,3.90
2018-05-04T03:55:52.846Z,4.27
2018-05-04T03:58:32.178Z,3.57
2018-05-04T04:01:11.572Z,4.10
2018-05-04T04:03:50.922Z,4.00
2018-05-04T04:06:18.406Z,3.93
2018-05-04T04:08:45.899Z,4.07
2018-05-04T04:11:13.398Z,4.10
2018-05-04T04:13:40.891Z,4.67
2018-05-04T04:16:08.373Z,4.17
2018-05-04T04:18:35.877Z,4.43
2018-05-04T04:21:03.471Z,3.97
2018-05-04T04:23:30.949Z,4.43
2018-05-04T04:25:58.441Z,4.27
2018-05-04T04:28:26.800Z,4.33
2018-05-04T04:30:54.280Z,4.63
2018-05-04T04:33:21.774Z,4.13
2018-05-04T04:35:49.283Z,4.40
2018-05-04T04:38:16.795Z,4.50
2018-05-04T04:40:44.288Z,4.07
2018-05-04T04:43:11.845Z,4.20
2018-05-04T04:45:39.362Z,4.50
2018-05-04T04:48:06.875Z,4.60
2018-05-04T04:50:34.400Z,3.57
2018-05-04T04:53:01.903Z,3.77
2018-05-04T04:55:29.412Z,3.70
2018-05-04T04:57:56.929Z,3.60
2018-05-04T05:00:24.434Z,4.50
2018-05-04T05:02:51.941Z,4.07
2018-05-04T05:05:19.438Z,4.20
2018-05-04T05:07:46.923Z,3.93
2018-05-04T05:10:14.419Z,3.97
2018-05-04T05:12:41.900Z,3.87
2018-05-04T05:15:09.458Z,3.83
2018-05-04T05:17:36.941Z,4.17
2018-05-04T05:20:04.440Z,4.57
2018-05-04T05:22:31.939Z,4.40
2018-05-04T05:24:59.432Z,4.77
2018-05-04T05:27:26.966Z,4.00
2018-05-04T05:29:54.440Z,4.63
2018-05-04T05:32:21.940Z,5.07
2018-05-04T05:34:49.443Z,3.93
2018-05-04T05:37:16.950Z,6.03
2018-05-04T05:39:44.443Z,3.97
2018-05-04T05:42:12.025Z,4.60
2018-05-04T05:44:39.508Z,4.00
2018-05-04T05:47:07.384Z,4.67
2018-05-04T05:49:34.992Z,4.00
2018-05-04T05:52:02.482Z,3.70
2018-05-04T05:54:36.931Z,3.10
2018-05-04T05:57:04.566Z,3.33
2018-05-04T05:59:32.098Z,3.10
2018-05-04T06:01:59.617Z,3.00
2018-05-04T06:04:27.125Z,3.50
2018-05-04T06:06:54.650Z,3.93
2018-05-04T06:09:22.252Z,3.13
2018-05-04T06:11:49.767Z,3.03
2018-05-04T06:14:17.264Z,3.07
2018-05-04T06:16:44.795Z,2.83
2018-05-04T06:19:12.336Z,2.63
2018-05-04T06:21:39.824Z,3.27
2018-05-04T06:24:07.320Z,2.40
2018-05-04T06:26:34.789Z,2.10
2018-05-04T06:29:02.295Z,2.60
2018-05-04T06:31:29.825Z,3.20
2018-05-04T06:33:57.334Z,2.57
2018-05-04T06:36:24.823Z,2.57
2018-05-04T06:38:52.407Z,2.73
2018-05-04T06:41:19.961Z,3.00
2018-05-04T06:43:47.452Z,3.00
2018-05-04T06:46:14.944Z,3.73
2018-05-04T06:48:46.181Z,2.90
2018-05-04T06:51:13.691Z,2.60
2018-05-04T06:53:41.192Z,3.00
2018-05-04T06:56:08.756Z,2.90
2018-05-04T06:58:36.298Z,3.07
2018-05-04T07:01:03.797Z,2.90
2018-05-04T07:03:31.323Z,2.20
2018-05-04T07:05:58.862Z,2.57
2018-05-04T07:08:26.379Z,3.60
2018-05-04T07:10:53.917Z,3.47
2018-05-04T07:13:21.444Z,3.03
2018-05-04T07:15:48.918Z,3.00
2018-05-04T07:18:16.447Z,2.70
2018-05-04T07:20:43.940Z,3.00
2018-05-04T07:23:11.427Z,2.83
2018-05-04T07:25:38.965Z,3.77
2018-05-04T07:28:06.445Z,2.83
2018-05-04T07:30:33.942Z,3.27
2018-05-04T07:33:01.482Z,3.13
2018-05-04T07:35:28.966Z,2.87
2018-05-04T07:37:56.449Z,3.07
2018-05-04T07:40:23.991Z,2.80
2018-05-04T07:42:51.504Z,2.87
2018-05-04T07:45:18.988Z,3.07
2018-05-04T07:47:46.465Z,3.23
2018-05-04T07:50:14.021Z,3.00
2018-05-04T07:52:41.538Z,3.00
2018-05-04T07:55:09.026Z,2.70
2018-05-04T07:57:36.603Z,2.93
2018-05-04T08:00:04.115Z,2.70
2018-05-04T08:02:31.673Z,2.33
2018-05-04T08:04:59.213Z,2.80
2018-05-04T08:07:26.712Z,3.20
2018-05-04T08:09:54.210Z,2.30
2018-05-04T08:12:21.728Z,2.40
2018-05-04T08:14:49.221Z,2.50
2018-05-04T08:17:16.702Z,2.63
2018-05-04T08:19:44.194Z,2.80
2018-05-04T08:22:11.664Z,2.93
2018-05-04T08:24:39.176Z,2.13
2018-05-04T08:27:06.678Z,2.50
2018-05-04T08:29:34.149Z,2.73
2018-05-04T08:32:01.658Z,2.33
2018-05-04T08:34:29.145Z,2.47
2018-05-04T08:36:56.643Z,2.23
2018-05-04T08:39:24.121Z,2.23
2018-05-04T08:41:51.620Z,2.50
2018-05-04T08:44:19.130Z,2.30
2018-05-04T08:46:46.691Z,2.10
2018-05-04T08:49:14.172Z,2.00
2018-05-04T08:51:41.666Z,2.37
2018-05-04T08:54:09.145Z,2.63
2018-05-04T08:56:36.651Z,2.27
2018-05-04T08:59:04.129Z,2.27
2018-05-04T09:01:31.623Z,2.77
2018-05-04T09:03:59.145Z,2.20
2018-05-04T09:06:26.624Z,2.13
2018-05-04T09:08:54.159Z,2.70
2018-05-04T09:11:21.639Z,2.97
2018-05-04T09:13:49.148Z,2.73
2018-05-04T09:16:16.712Z,2.93
2018-05-04T09:18:44.264Z,2.53
2018-05-04T09:21:11.779Z,2.63
2018-05-04T09:23:39.336Z,2.57
2018-05-04T09:26:06.845Z,2.83
2018-05-04T09:28:34.515Z,3.33
2018-05-04T09:31:01.913Z,2.77
2018-05-04T09:33:29.428Z,3.03
2018-05-04T09:35:56.979Z,2.60
2018-05-04T09:38:24.537Z,2.80
2018-05-04T09:40:52.561Z,3.30
2018-05-04T09:43:20.201Z,2.83
2018-05-04T09:45:47.771Z,2.80
2018-05-04T09:48:15.255Z,2.93
2018-05-04T09:50:42.801Z,3.03
2018-05-04T09:53:10.324Z,2.60
2018-05-04T09:55:37.849Z,3.23
2018-05-04T09:58:05.434Z,2.90
2018-05-04T10:00:32.933Z,3.33
2018-05-04T10:03:00.565Z,3.30
2018-05-04T10:05:28.113Z,3.53
2018-05-04T10:07:55.731Z,3.30
2018-05-04T10:10:23.577Z,3.43
2018-05-04T10:12:51.084Z,3.60
2018-05-04T10:15:18.623Z,3.63
2018-05-04T10:17:46.128Z,3.90
2018-05-04T10:20:13.623Z,3.77
2018-05-04T10:22:41.127Z,3.57
2018-05-04T10:25:08.621Z,3.73
2018-05-04T10:27:36.131Z,3.90
2018-05-04T10:30:03.623Z,3.83
2018-05-04T10:32:31.222Z,4.10
2018-05-04T10:34:58.709Z,3.57
2018-05-04T10:37:26.190Z,3.57
2018-05-04T10:39:53.681Z,3.73
2018-05-04T10:42:21.188Z,4.47
2018-05-04T10:44:48.769Z,3.27
2018-05-04T10:47:16.270Z,3.80
2018-05-04T10:49:43.832Z,3.73
2018-05-04T10:52:11.313Z,4.60
2018-05-04T10:54:38.796Z,3.67
2018-05-04T10:57:06.381Z,3.47
2018-05-04T10:59:33.827Z,4.43
2018-05-04T11:02:01.344Z,3.63
2018-05-04T11:04:28.827Z,3.80
2018-05-04T11:06:56.336Z,3.80
2018-05-04T11:09:23.835Z,3.70
2018-05-04T11:11:51.453Z,4.33
2018-05-04T11:14:19.092Z,3.63
2018-05-04T11:16:46.615Z,3.90
2018-05-04T11:19:14.172Z,3.33
2018-05-04T11:21:41.651Z,4.13
2018-05-04T11:24:09.242Z,3.60
2018-05-04T11:26:36.756Z,3.43
2018-05-04T11:29:04.277Z,3.63
2018-05-04T11:31:31.778Z,3.67
2018-05-04T11:33:59.307Z,3.30
2018-05-04T11:36:26.782Z,3.73
2018-05-04T11:38:54.302Z,3.20
2018-05-04T11:41:21.807Z,3.50
2018-05-04T11:43:49.336Z,3.30
2018-05-04T11:46:16.825Z,3.50
2018-05-04T11:48:44.344Z,3.10
2018-05-04T11:51:11.821Z,3.30
2018-05-04T11:53:39.316Z,3.47
2018-05-04T11:56:06.829Z,3.33
2018-05-04T11:58:34.348Z,3.00
2018-05-04T12:01:01.870Z,3.37
2018-05-04T12:03:29.372Z,4.07
2018-05-04T12:05:56.858Z,3.27
2018-05-04T12:08:24.354Z,3.40
2018-05-04T12:10:51.893Z,3.70
2018-05-04T12:13:19.352Z,3.23
2018-05-04T12:15:46.925Z,3.33
2018-05-04T12:18:14.371Z,3.20
2018-05-04T12:20:41.875Z,3.43
2018-05-04T12:23:09.431Z,3.17
2018-05-04T12:25:36.943Z,3.17
2018-05-04T12:28:04.428Z,3.50
2018-05-04T12:30:31.957Z,3.60
2018-05-04T12:32:59.457Z,3.20
2018-05-04T12:35:26.956Z,3.30
2018-05-04T12:37:54.442Z,3.50
2018-05-04T12:40:21.918Z,3.43
2018-05-04T12:42:50.332Z,3.40
2018-05-04T12:45:17.842Z,3.40
2018-05-04T12:47:45.321Z,3.23
2018-05-04T12:50:12.845Z,2.97
2018-05-04T12:52:40.352Z,3.33
2018-05-04T12:55:07.874Z,2.90
2018-05-04T12:57:35.433Z,3.37
2018-05-04T13:00:02.929Z,3.13
2018-05-04T13:02:30.492Z,3.07
2018-05-04T13:04:58.020Z,3.27
2018-05-04T13:07:25.524Z,2.90
2018-05-04T13:09:53.027Z,3.10
2018-05-04T13:12:20.553Z,3.23
2018-05-04T13:14:48.040Z,3.27
2018-05-04T13:17:15.538Z,3.30
2018-05-04T13:19:43.034Z,4.03
2018-05-04T13:22:10.530Z,3.27
2018-05-04T13:24:38.011Z,3.73
2018-05-04T13:27:05.489Z,3.63
2018-05-04T13:29:32.964Z,2.97
2018-05-04T13:32:00.479Z,3.27
2018-05-04T13:34:28.007Z,3.40
2018-05-04T13:36:55.541Z,3.30
2018-05-04T13:39:23.041Z,3.20
2018-05-04T13:41:50.538Z,3.57
2018-05-04T13:44:18.056Z,3.30
2018-05-04T13:46:45.544Z,3.37
2018-05-04T13:49:13.046Z,2.93
2018-05-04T13:51:40.631Z,2.63
2018-05-04T13:54:08.047Z,2.60
2018-05-04T13:56:35.557Z,2.87
2018-05-04T13:59:03.041Z,2.80
2018-05-04T14:01:30.542Z,2.77
2018-05-04T14:03:58.108Z,2.87
2018-05-04T14:06:25.548Z,2.37
2018-05-04T14:08:53.029Z,2.60
2018-05-04T14:11:20.511Z,2.47
2018-05-04T14:13:48.007Z,2.80
2018-05-04T14:16:15.543Z,2.40
2018-05-04T14:18:43.055Z,3.17
2018-05-04T14:21:10.564Z,2.57
2018-05-04T14:23:38.039Z,2.23
2018-05-04T14:26:05.539Z,2.20
2018-05-04T14:28:33.039Z,2.90
2018-05-04T14:31:00.534Z,2.50
2018-05-04T14:33:28.054Z,2.23
2018-05-04T14:35:55.539Z,2.23
2018-05-04T14:38:23.084Z,3.50
2018-05-04T14:40:50.576Z,2.30
2018-05-04T14:43:18.081Z,1.90
2018-05-04T14:45:45.580Z,2.70
2018-05-04T14:48:13.048Z,2.43
2018-05-04T14:50:40.563Z,2.70
2018-05-04T14:53:08.078Z,2.43
2018-05-04T14:55:35.609Z,2.30
2018-05-04T14:58:03.071Z,2.47
2018-05-04T15:00:30.594Z,2.20
2018-05-04T15:02:58.091Z,2.20
2018-05-04T15:05:25.586Z,2.60
2018-05-04T15:07:53.105Z,2.20
2018-05-04T15:10:20.620Z,2.47
2018-05-04T15:12:48.112Z,2.53
2018-05-04T15:15:15.612Z,2.67
2018-05-04T15:17:43.108Z,2.30
2018-05-04T15:20:10.589Z,2.93
2018-05-04T15:22:38.115Z,2.73
2018-05-04T15:25:05.720Z,2.63
2018-05-04T15:27:33.141Z,2.63
2018-05-04T15:30:00.646Z,2.40
2018-05-04T15:32:28.163Z,2.90
2018-05-04T15:34:55.651Z,2.50
2018-05-04T15:37:23.163Z,2.50
2018-05-04T15:39:50.782Z,2.20
2018-05-04T15:42:18.271Z,3.00
2018-05-04T15:44:45.779Z,2.77
2018-05-04T15:47:13.283Z,2.80
2018-05-04T15:49:40.780Z,2.73
2018-05-04T15:52:08.260Z,2.60
2018-05-04T15:54:35.778Z,2.83
2018-05-04T15:57:03.278Z,2.60
2018-05-04T15:59:30.763Z,2.77
2018-05-04T16:01:58.263Z,3.10
2018-05-04T16:04:25.878Z,2.33
2018-05-04T16:06:53.371Z,2.43
2018-05-04T16:09:20.836Z,2.67
2018-05-04T16:11:48.350Z,2.97
2018-05-04T16:14:15.885Z,2.60
2018-05-04T16:16:43.416Z,2.90
2018-05-04T16:19:12.665Z,3.23
2018-05-04T16:21:40.167Z,3.37
2018-05-04T16:24:07.743Z,2.80
2018-05-04T16:26:35.232Z,3.20
2018-05-04T16:29:02.780Z,2.90
2018-05-04T16:31:30.282Z,2.53
2018-05-04T16:33:57.799Z,2.20
2018-05-04T16:36:25.284Z,2.40
2018-05-04T16:38:52.787Z,2.20
2018-05-04T16:41:20.287Z,2.33
2018-05-04T16:43:47.780Z,2.20
2018-05-04T16:46:20.872Z,2.40
2018-05-04T16:48:53.866Z,2.40
2018-05-04T16:51:21.340Z,2.30
2018-05-04T16:53:48.828Z,2.10
2018-05-04T16:56:16.328Z,2.27
2018-05-04T16:58:43.840Z,2.50
2018-05-04T17:01:11.341Z,1.97
2018-05-04T17:03:38.828Z,1.70
2018-05-04T17:06:06.316Z,1.97
2018-05-04T17:08:33.823Z,2.13
2018-05-04T17:11:01.317Z,1.87
2018-05-04T17:13:28.851Z,2.00
2018-05-04T17:15:56.417Z,2.50
2018-05-04T17:18:23.894Z,2.27
2018-05-04T17:20:51.386Z,2.30
2018-05-04T17:23:18.879Z,2.50
2018-05-04T17:25:46.424Z,2.10
2018-05-04T17:28:13.865Z,2.33
2018-05-04T17:30:41.372Z,2.53
2018-05-04T17:33:08.859Z,2.23
2018-05-04T17:35:36.415Z,2.20
2018-05-04T17:38:03.963Z,2.33
2018-05-04T17:40:31.538Z,2.43
2018-05-04T17:42:58.993Z,2.17
2018-05-04T17:45:26.534Z,2.43
2018-05-04T17:47:54.069Z,1.90
2018-05-04T17:50:21.571Z,1.57
2018-05-04T17:52:49.045Z,1.90
2018-05-04T17:55:16.535Z,2.10
2018-05-04T17:57:44.042Z,1.80
2018-05-04T18:00:11.547Z,2.03
2018-05-04T18:02:39.028Z,1.63
2018-05-04T18:05:06.545Z,1.90
2018-05-04T18:07:34.070Z,1.93
2018-05-04T18:10:01.657Z,1.57
2018-05-04T18:12:29.189Z,1.80
2018-05-04T18:14:56.711Z,2.10
2018-05-04T18:17:24.237Z,2.03
2018-05-04T18:19:51.805Z,1.67
2018-05-04T18:22:19.308Z,1.70
2018-05-04T18:24:46.834Z,2.23
2018-05-04T18:27:14.353Z,1.80
2018-05-04T18:29:41.920Z,1.83
2018-05-04T18:32:09.439Z,1.60
2018-05-04T18:34:37.088Z,1.53
2018-05-04T18:37:04.575Z,1.50
2018-05-04T18:39:32.064Z,2.10
2018-05-04T18:41:59.615Z,1.60
2018-05-04T18:44:27.126Z,1.77
2018-05-04T18:46:54.628Z,1.70
2018-05-04T18:49:22.128Z,1.70
2018-05-04T18:51:49.618Z,2.17
2018-05-04T18:54:17.163Z,2.00
2018-05-04T18:56:54.971Z,1.97
2018-05-04T18:59:25.356Z,1.73
2018-05-04T19:01:52.970Z,2.00
2018-05-04T19:04:20.505Z,2.40
2018-05-04T19:06:48.001Z,2.03
2018-05-04T19:09:16.062Z,1.90
2018-05-04T19:11:43.556Z,1.90
2018-05-04T19:14:11.056Z,2.23
2018-05-04T19:16:38.554Z,2.07
2018-05-04T19:19:06.058Z,1.70
2018-05-04T19:21:35.562Z,2.00
2018-05-04T19:24:03.039Z,1.97
2018-05-04T19:26:31.378Z,1.83
2018-05-04T19:28:58.855Z,2.20
2018-05-04T19:31:26.497Z,1.83
2018-05-04T19:33:53.997Z,1.70
2018-05-04T19:36:21.500Z,2.43
2018-05-04T19:38:49.002Z,1.67
2018-05-04T19:41:16.484Z,1.77
2018-05-04T19:43:43.976Z,2.13
2018-05-04T19:46:11.513Z,2.13
2018-05-04T19:48:39.053Z,2.10
2018-05-04T19:51:06.583Z,2.60
2018-05-04T19:53:34.095Z,2.27
2018-05-04T19:56:03.229Z,2.30
2018-05-04T19:58:30.720Z,2.50
2018-05-04T20:00:58.310Z,1.90
2018-05-04T20:03:25.780Z,2.60
2018-05-04T20:05:53.260Z,2.13
2018-05-04T20:08:20.741Z,2.50
2018-05-04T20:10:48.250Z,2.37
2018-05-04T20:13:15.730Z,2.40
2018-05-04T20:15:43.223Z,2.60
2018-05-04T20:18:10.729Z,2.50
2018-05-04T20:20:38.311Z,2.30
2018-05-04T20:23:05.811Z,2.70
2018-05-04T20:25:35.345Z,2.20
2018-05-04T20:28:04.028Z,2.00
2018-05-04T20:30:32.332Z,2.10
2018-05-04T20:33:00.019Z,1.93
2018-05-04T20:35:27.767Z,2.07
2018-05-04T20:37:55.440Z,2.50
2018-05-04T20:40:22.984Z,2.03
2018-05-04T20:42:50.506Z,2.43
2018-05-04T20:45:19.406Z,2.10
2018-05-04T20:47:46.920Z,2.20
2018-05-04T20:50:15.198Z,2.27
2018-05-04T20:52:43.882Z,2.20
2018-05-04T20:55:12.911Z,2.07
2018-05-04T20:57:40.543Z,2.70
2018-05-04T21:00:08.127Z,2.23
2018-05-04T21:02:37.561Z,3.20
2018-05-04T21:05:05.121Z,2.60
2018-05-04T21:07:34.441Z,2.53
2018-05-04T21:10:01.931Z,2.07
2018-05-04T21:12:31.199Z,2.10
2018-05-04T21:14:59.692Z,1.93
2018-05-04T21:17:28.018Z,2.30
2018-05-04T21:19:55.930Z,2.20
2018-05-04T21:22:24.271Z,2.03
2018-05-04T21:24:51.776Z,2.20
2018-05-04T21:27:19.287Z,2.30
2018-05-04T21:29:47.091Z,2.20
2018-05-04T21:32:14.632Z,2.73
2018-05-04T21:34:42.288Z,3.13
2018-05-04T21:37:09.906Z,2.30
2018-05-04T21:39:37.394Z,3.00
2018-05-04T21:42:04.993Z,2.80
2018-05-04T21:44:32.598Z,2.90
2018-05-04T21:47:00.141Z,3.00
2018-05-04T21:49:28.788Z,2.30
2018-05-04T21:51:56.541Z,2.80
2018-05-04T21:54:23.996Z,2.43
2018-05-04T21:56:51.487Z,2.63
2018-05-04T21:59:18.970Z,2.80
2018-05-04T22:01:46.462Z,2.70
2018-05-04T22:04:13.956Z,2.77
2018-05-04T22:06:41.451Z,2.57
2018-05-04T22:09:08.936Z,2.67
2018-05-04T22:11:36.447Z,2.53
2018-05-04T22:14:03.931Z,2.63
2018-05-04T22:16:31.418Z,3.43
2018-05-04T22:18:58.939Z,2.40
2018-05-04T22:21:26.425Z,2.77
2018-05-04T22:23:53.912Z,2.70
2018-05-04T22:26:21.415Z,2.50
2018-05-04T22:28:48.912Z,2.80
2018-05-04T22:31:16.416Z,2.40
2018-05-04T22:33:43.900Z,3.50
2018-05-04T22:36:11.382Z,2.23
2018-05-04T22:38:38.867Z,2.77
2018-05-04T22:41:06.376Z,2.30
2018-05-04T22:43:33.872Z,2.50
2018-05-04T22:46:01.360Z,2.80
2018-05-04T22:48:28.856Z,2.70
2018-05-04T22:50:56.338Z,2.30
2018-05-04T22:53:23.849Z,2.60
2018-05-04T22:55:51.329Z,2.33
2018-05-04T22:58:18.839Z,2.67
2018-05-04T23:00:46.331Z,2.83
2018-05-04T23:03:13.839Z,2.27
2018-05-04T23:05:41.375Z,2.97
2018-05-04T23:08:08.883Z,1.93
2018-05-04T23:10:36.436Z,2.53
2018-05-04T23:13:03.951Z,2.23
2018-05-04T23:15:31.455Z,2.40
2018-05-04T23:17:58.953Z,2.87
2018-05-04T23:20:26.485Z,2.50
2018-05-04T23:22:53.956Z,2.60
2018-05-04T23:25:21.487Z,2.90
2018-05-04T23:27:48.975Z,2.60
2018-05-04T23:30:16.524Z,2.93
2018-05-04T23:32:44.015Z,3.20
2018-05-04T23:35:11.516Z,3.10
2018-05-04T23:37:39.069Z,2.60
2018-05-04T23:40:06.572Z,3.10
2018-05-04T23:42:34.055Z,2.77
2018-05-04T23:45:01.573Z,2.30
2018-05-04T23:47:29.066Z,2.27
2018-05-04T23:49:56.561Z,2.53
2018-05-04T23:52:24.076Z,3.20
2018-05-04T23:54:51.631Z,2.83
2018-05-04T23:57:19.135Z,3.23
2018-05-04T23:59:46.620Z,2.90
